createdAt,value
2019-04-03T00:00:28.348Z,13.53
2019-04-03T00:03:00.351Z,13.73
2019-04-03T00:05:35.008Z,12.83
2019-04-03T00:08:07.097Z,12.07
2019-04-03T00:10:39.372Z,13.37
2019-04-03T00:13:12.034Z,13.27
2019-04-03T00:15:44.762Z,13.23
2019-04-03T00:18:17.301Z,12.63
2019-04-03T00:20:49.521Z,12.70
2019-04-03T00:23:22.372Z,14.03
2019-04-03T00:25:54.946Z,13.60
2019-04-03T00:28:27.086Z,13.10
2019-04-03T00:30:59.388Z,13.70
2019-04-03T00:33:31.407Z,13.03
2019-04-03T00:36:03.725Z,13.23
2019-04-03T00:38:36.072Z,13.27
2019-04-03T00:41:08.252Z,13.70
2019-04-03T00:43:40.250Z,13.17
2019-04-03T00:46:12.260Z,13.87
2019-04-03T00:48:44.688Z,12.83
2019-04-03T00:51:16.971Z,13.20
2019-04-03T00:53:49.585Z,13.43
2019-04-03T00:56:22.044Z,13.10
2019-04-03T00:58:55.436Z,13.37
2019-04-03T01:01:28.392Z,13.63
2019-04-03T01:04:00.424Z,13.30
2019-04-03T01:06:32.539Z,12.93
2019-04-03T01:09:06.438Z,13.07
2019-04-03T01:11:38.772Z,13.13
2019-04-03T01:14:10.832Z,13.70
2019-04-03T01:16:43.166Z,14.67
2019-04-03T01:19:16.105Z,13.47
2019-04-03T01:21:48.509Z,14.20
2019-04-03T01:24:20.469Z,13.83
2019-04-03T01:26:54.947Z,13.70
2019-04-03T01:29:27.571Z,14.40
2019-04-03T01:31:59.578Z,13.97
2019-04-03T01:34:31.912Z,14.07
2019-04-03T01:37:03.926Z,14.50
2019-04-03T01:39:35.980Z,14.67
2019-04-03T01:42:08.683Z,15.63
2019-04-03T01:44:40.865Z,14.83
2019-04-03T01:47:12.827Z,13.80
2019-04-03T01:49:44.823Z,13.67
2019-04-03T01:52:16.935Z,15.07
2019-04-03T01:54:49.241Z,14.67
2019-04-03T01:57:21.465Z,15.13
2019-04-03T01:59:54.359Z,14.47
2019-04-03T02:02:26.956Z,15.03
2019-04-03T02:04:59.019Z,14.50
2019-04-03T02:07:31.065Z,14.67
2019-04-03T02:10:03.246Z,15.63
2019-04-03T02:12:35.501Z,14.80
2019-04-03T02:15:07.559Z,14.73
2019-04-03T02:17:39.518Z,16.00
2019-04-03T02:20:13.024Z,15.87
2019-04-03T02:22:45.010Z,15.30
2019-04-03T02:25:16.981Z,15.80
2019-04-03T02:27:50.656Z,14.93
2019-04-03T02:30:22.779Z,15.27
2019-04-03T02:32:56.361Z,16.07
2019-04-03T02:35:28.706Z,15.73
2019-04-03T02:38:00.775Z,15.00
2019-04-03T02:40:33.230Z,15.83
2019-04-03T02:43:05.695Z,15.90
2019-04-03T02:45:38.818Z,15.10
2019-04-03T02:48:12.187Z,16.47
2019-04-03T02:50:47.607Z,15.57
2019-04-03T02:53:19.080Z,16.30
2019-04-03T02:55:51.177Z,16.13
2019-04-03T02:58:23.479Z,15.07
2019-04-03T03:00:55.501Z,16.97
2019-04-03T03:03:27.788Z,16.30
2019-04-03T03:06:01.335Z,16.40
2019-04-03T03:08:33.759Z,16.80
2019-04-03T03:11:07.756Z,16.63
2019-04-03T03:13:39.955Z,15.70
2019-04-03T03:16:12.108Z,16.73
2019-04-03T03:18:44.392Z,15.77
2019-04-03T03:21:16.514Z,15.83
2019-04-03T03:23:49.512Z,16.67
2019-04-03T03:26:23.039Z,16.10
2019-04-03T03:28:55.100Z,16.07
2019-04-03T03:31:57.449Z,16.20
2019-04-03T03:34:04.162Z,16.27
2019-04-03T03:36:35.816Z,17.10
2019-04-03T03:39:10.705Z,16.90
2019-04-03T03:41:41.872Z,17.10
2019-04-03T03:44:16.222Z,17.00
2019-04-03T03:46:48.533Z,17.07
2019-04-03T03:49:21.124Z,17.37
2019-04-03T03:51:53.816Z,16.83
2019-04-03T03:54:29.407Z,17.47
2019-04-03T03:57:04.784Z,16.93
2019-04-03T03:59:36.079Z,17.87
2019-04-03T04:02:13.037Z,17.20
2019-04-03T04:04:48.127Z,17.33
2019-04-03T04:07:19.147Z,17.87
2019-04-03T04:09:53.180Z,17.83
2019-04-03T04:12:25.582Z,16.77
2019-04-03T04:14:57.991Z,17.27
2019-04-03T04:17:30.126Z,17.03
2019-04-03T04:20:06.097Z,17.53
2019-04-03T04:22:39.703Z,17.20
2019-04-03T04:25:11.967Z,16.90
2019-04-03T04:27:46.458Z,17.17
2019-04-03T04:30:20.098Z,17.10
2019-04-03T04:32:52.327Z,17.23
2019-04-03T04:35:24.319Z,17.60
2019-04-03T04:37:56.714Z,18.17
2019-04-03T04:40:31.284Z,21.60
2019-04-03T04:43:04.158Z,22.27
2019-04-03T04:45:36.564Z,21.77
2019-04-03T04:48:08.563Z,19.33
2019-04-03T04:50:40.871Z,17.27
2019-04-03T04:53:12.894Z,16.17
2019-04-03T04:55:44.845Z,17.07
2019-04-03T04:58:16.808Z,17.30
2019-04-03T05:00:49.004Z,17.00
2019-04-03T05:03:22.420Z,16.70
2019-04-03T05:05:57.255Z,17.30
2019-04-03T05:08:28.154Z,16.80
2019-04-03T05:11:00.120Z,16.63
2019-04-03T05:13:32.289Z,16.83
2019-04-03T05:16:04.305Z,17.13
2019-04-03T05:18:36.845Z,16.27
2019-04-03T05:21:11.221Z,16.63
2019-04-03T05:23:43.966Z,16.53
2019-04-03T05:26:21.031Z,16.30
2019-04-03T05:28:57.725Z,18.67
2019-04-03T05:31:38.580Z,17.50
2019-04-03T05:34:12.395Z,16.87
2019-04-03T05:36:44.213Z,16.50
2019-04-03T05:39:16.280Z,17.33
2019-04-03T05:41:48.287Z,18.13
2019-04-03T05:44:24.960Z,18.63
2019-04-03T05:46:59.343Z,17.50
2019-04-03T05:49:31.129Z,16.83
2019-04-03T05:52:04.156Z,17.73
2019-04-03T05:54:38.800Z,18.10
2019-04-03T05:57:15.114Z,16.70
2019-04-03T05:59:58.856Z,17.47
2019-04-03T06:02:24.027Z,16.80
2019-04-03T06:04:56.159Z,16.70
2019-04-03T06:07:28.953Z,16.97
2019-04-03T06:10:01.527Z,17.70
2019-04-03T06:12:36.545Z,16.80
2019-04-03T06:15:10.297Z,17.37
2019-04-03T06:17:45.052Z,17.43
2019-04-03T06:20:17.330Z,17.70
2019-04-03T06:22:49.890Z,18.07
2019-04-03T06:25:22.984Z,17.57
2019-04-03T06:27:55.277Z,18.53
2019-04-03T06:30:27.300Z,18.80
2019-04-03T06:33:01.755Z,18.17
2019-04-03T06:35:35.285Z,20.57
2019-04-03T06:38:07.711Z,18.10
2019-04-03T06:40:39.740Z,18.50
2019-04-03T06:43:12.781Z,19.10
2019-04-03T06:45:45.153Z,19.30
2019-04-03T06:48:17.519Z,19.70
2019-04-03T06:50:49.560Z,18.40
2019-04-03T06:53:27.595Z,19.03
2019-04-03T06:55:57.532Z,18.53
2019-04-03T06:58:38.226Z,18.50
2019-04-03T07:01:11.780Z,18.87
2019-04-03T07:03:44.279Z,18.90
2019-04-03T07:06:16.623Z,23.37
2019-04-03T07:08:48.610Z,20.17
2019-04-03T07:11:23.609Z,19.13
2019-04-03T07:13:56.047Z,17.40
2019-04-03T07:16:28.884Z,19.97
2019-04-03T07:19:01.342Z,17.97
2019-04-03T07:21:33.656Z,19.23
2019-04-03T07:24:06.166Z,18.87
2019-04-03T07:26:38.397Z,18.47
2019-04-03T07:29:12.160Z,17.50
2019-04-03T07:31:44.923Z,18.73
2019-04-03T07:34:17.507Z,19.67
2019-04-03T07:36:49.692Z,18.23
2019-04-03T07:39:21.727Z,18.03
2019-04-03T07:41:54.829Z,19.47
2019-04-03T07:44:29.164Z,19.07
2019-04-03T07:47:03.311Z,18.47
2019-04-03T07:49:35.344Z,19.37
2019-04-03T07:52:08.296Z,18.00
2019-04-03T07:54:50.744Z,19.63
2019-04-03T07:57:24.232Z,19.10
2019-04-03T08:00:00.510Z,19.23
2019-04-03T08:02:38.073Z,18.60
2019-04-03T08:05:10.511Z,20.10
2019-04-03T08:07:43.700Z,18.13
2019-04-03T08:10:22.840Z,18.63
2019-04-03T08:12:54.897Z,18.07
2019-04-03T08:15:27.116Z,18.47
2019-04-03T08:18:00.174Z,19.33
2019-04-03T08:20:32.375Z,18.97
2019-04-03T08:23:05.649Z,19.80
2019-04-03T08:25:38.387Z,19.23
2019-04-03T08:28:11.074Z,18.83
2019-04-03T08:30:43.498Z,19.70
2019-04-03T08:33:19.071Z,19.63
2019-04-03T08:35:49.990Z,19.97
2019-04-03T08:38:22.648Z,19.47
2019-04-03T08:40:54.916Z,19.87
2019-04-03T08:43:26.962Z,19.17
2019-04-03T08:45:59.101Z,18.63
2019-04-03T08:48:31.145Z,19.80
2019-04-03T08:51:03.898Z,17.67
2019-04-03T08:53:38.544Z,18.87
2019-04-03T08:56:09.799Z,18.30
2019-04-03T08:58:41.830Z,18.33
2019-04-03T09:01:13.875Z,18.33
2019-04-03T09:03:46.490Z,17.30
2019-04-03T09:06:18.615Z,17.80
2019-04-03T09:08:50.992Z,17.43
2019-04-03T09:11:23.296Z,17.40
2019-04-03T09:13:55.981Z,18.13
2019-04-03T09:16:31.294Z,18.53
2019-04-03T09:19:03.395Z,17.97
2019-04-03T09:21:35.462Z,18.23
2019-04-03T09:24:08.727Z,17.90
2019-04-03T09:26:41.938Z,16.90
2019-04-03T09:29:13.919Z,18.53
2019-04-03T09:31:46.306Z,18.40
2019-04-03T09:34:20.459Z,18.37
2019-04-03T09:36:54.210Z,17.53
2019-04-03T09:39:27.262Z,17.33
2019-04-03T09:42:00.074Z,17.57
2019-04-03T09:44:36.371Z,16.87
2019-04-03T09:47:08.452Z,17.97
2019-04-03T09:49:43.792Z,16.50
2019-04-03T09:52:15.129Z,18.50
2019-04-03T09:54:47.378Z,17.87
2019-04-03T09:57:19.544Z,18.27
2019-04-03T09:59:51.585Z,17.73
2019-04-03T10:02:23.672Z,18.50
2019-04-03T10:04:58.656Z,17.80
2019-04-03T10:07:31.835Z,17.43
2019-04-03T10:10:10.400Z,17.67
2019-04-03T10:12:47.610Z,17.43
2019-04-03T10:15:19.504Z,18.10
2019-04-03T10:17:51.170Z,19.17
2019-04-03T10:20:23.606Z,19.13
2019-04-03T10:23:00.104Z,17.50
2019-04-03T10:25:32.809Z,18.53
2019-04-03T10:28:05.573Z,18.83
2019-04-03T10:30:37.825Z,17.67
2019-04-03T10:33:10.604Z,17.50
2019-04-03T10:35:46.923Z,18.37
2019-04-03T10:38:19.079Z,17.13
2019-04-03T10:40:53.880Z,18.13
2019-04-03T10:43:27.352Z,18.87
2019-04-03T10:46:02.464Z,16.63
2019-04-03T10:48:34.559Z,18.07
2019-04-03T10:51:09.040Z,17.73
2019-04-03T10:53:40.912Z,17.73
2019-04-03T10:56:13.794Z,18.23
2019-04-03T10:58:45.858Z,18.13
2019-04-03T11:01:18.686Z,18.20
2019-04-03T11:03:50.867Z,16.57
2019-04-03T11:06:32.351Z,17.23
2019-04-03T11:09:07.637Z,17.40
2019-04-03T11:11:42.710Z,17.90
2019-04-03T11:14:14.042Z,16.63
2019-04-03T11:16:47.243Z,16.17
2019-04-03T11:19:20.286Z,16.37
2019-04-03T11:21:55.744Z,17.47
2019-04-03T11:24:27.385Z,16.20
2019-04-03T11:27:00.310Z,15.83
2019-04-03T11:29:33.086Z,16.50
2019-04-03T11:32:05.667Z,16.17
2019-04-03T11:34:39.657Z,16.10
2019-04-03T11:37:12.271Z,16.80
2019-04-03T11:39:46.221Z,16.33
2019-04-03T11:42:25.224Z,16.63
2019-04-03T11:44:52.576Z,17.00
2019-04-03T11:47:24.998Z,17.97
2019-04-03T11:49:57.150Z,18.43
2019-04-03T11:52:29.801Z,18.37
2019-04-03T11:55:01.905Z,19.70
2019-04-03T11:57:34.151Z,21.00
2019-04-03T12:00:14.409Z,20.13
2019-04-03T12:02:46.568Z,17.80
2019-04-03T12:05:20.960Z,19.13
2019-04-03T12:07:55.466Z,20.47
2019-04-03T12:10:26.859Z,19.63
2019-04-03T12:12:59.279Z,20.90
2019-04-03T12:15:33.778Z,21.33
2019-04-03T12:18:06.427Z,20.20
2019-04-03T12:20:43.748Z,21.60
2019-04-03T12:23:12.600Z,21.20
2019-04-03T12:25:44.802Z,20.70
2019-04-03T12:28:18.436Z,20.27
2019-04-03T12:30:51.014Z,20.43
2019-04-03T12:33:23.300Z,21.17
2019-04-03T12:35:55.847Z,21.80
2019-04-03T12:38:28.351Z,20.43
2019-04-03T12:41:03.765Z,21.07
2019-04-03T12:43:34.393Z,22.07
2019-04-03T12:46:06.580Z,22.27
2019-04-03T12:48:38.946Z,21.97
2019-04-03T12:51:13.330Z,20.97
2019-04-03T12:53:47.858Z,21.93
2019-04-03T12:56:19.690Z,21.40
2019-04-03T12:58:51.768Z,21.10
2019-04-03T13:01:24.481Z,20.13
2019-04-03T13:03:57.307Z,21.03
2019-04-03T13:06:29.581Z,20.80
2019-04-03T13:09:01.775Z,21.47
2019-04-03T13:11:34.010Z,20.67
2019-04-03T13:14:06.971Z,20.83
2019-04-03T13:16:39.735Z,21.83
2019-04-03T13:19:15.663Z,21.87
2019-04-03T13:21:48.083Z,21.53
2019-04-03T13:24:20.304Z,20.20
2019-04-03T13:26:59.237Z,20.87
2019-04-03T13:29:33.855Z,22.27
2019-04-03T13:32:08.939Z,22.23
2019-04-03T13:34:43.834Z,23.47
2019-04-03T13:37:23.631Z,24.07
2019-04-03T13:40:00.254Z,22.53
2019-04-03T13:42:41.243Z,23.17
2019-04-03T13:45:17.714Z,22.47
2019-04-03T13:47:57.860Z,24.53
2019-04-03T13:50:31.642Z,24.03
2019-04-03T13:53:04.156Z,23.37
2019-04-03T13:55:40.294Z,24.33
2019-04-03T13:58:17.000Z,23.53
2019-04-03T14:01:00.962Z,24.47
2019-04-03T14:03:27.868Z,23.17
2019-04-03T14:06:00.313Z,22.87
2019-04-03T14:08:33.254Z,24.13
2019-04-03T14:11:09.128Z,22.93
2019-04-03T14:13:43.570Z,23.03
2019-04-03T14:16:21.390Z,23.57
2019-04-03T14:18:51.036Z,24.50
2019-04-03T14:21:23.491Z,22.90
2019-04-03T14:23:57.259Z,21.70
2019-04-03T14:26:29.872Z,23.50
2019-04-03T14:29:02.427Z,23.87
2019-04-03T14:31:37.367Z,24.60
2019-04-03T14:34:08.807Z,25.57
2019-04-03T14:36:42.595Z,24.30
2019-04-03T14:39:17.099Z,24.53
2019-04-03T14:41:49.205Z,23.37
2019-04-03T14:44:21.256Z,25.33
2019-04-03T14:46:54.524Z,24.70
2019-04-03T14:49:26.595Z,24.27
2019-04-03T14:51:59.426Z,24.03
2019-04-03T14:54:32.762Z,26.27
2019-04-03T14:57:13.174Z,25.83
2019-04-03T14:59:38.995Z,28.70
2019-04-03T15:02:11.518Z,26.47
2019-04-03T15:04:43.597Z,26.13
2019-04-03T15:07:18.942Z,25.93
2019-04-03T15:09:51.402Z,26.20
2019-04-03T15:12:24.050Z,26.33
2019-04-03T15:14:56.694Z,27.17
2019-04-03T15:17:29.930Z,27.13
2019-04-03T15:20:02.534Z,28.43
2019-04-03T15:22:35.092Z,26.77
2019-04-03T15:25:07.839Z,25.97
2019-04-03T15:27:40.321Z,27.57
2019-04-03T15:30:13.658Z,26.80
2019-04-03T15:32:46.005Z,26.80
2019-04-03T15:35:18.712Z,25.83
2019-04-03T15:37:50.959Z,26.37
2019-04-03T15:40:25.879Z,26.97
2019-04-03T15:42:56.869Z,26.97
2019-04-03T15:45:29.169Z,26.17
2019-04-03T15:48:01.543Z,28.40
2019-04-03T15:50:36.443Z,25.80
2019-04-03T15:53:07.376Z,26.07
2019-04-03T15:55:40.379Z,26.40
2019-04-03T15:58:12.994Z,25.67
2019-04-03T16:00:44.993Z,30.83
2019-04-03T16:03:18.731Z,27.40
2019-04-03T16:05:50.962Z,25.40
2019-04-03T16:08:23.315Z,25.00
2019-04-03T16:10:57.211Z,25.23
2019-04-03T16:13:29.765Z,27.27
2019-04-03T16:16:02.499Z,25.93
2019-04-03T16:18:36.197Z,25.33
2019-04-03T16:21:10.663Z,26.53
2019-04-03T16:23:42.868Z,27.87
2019-04-03T16:26:16.987Z,27.70
2019-04-03T16:28:50.240Z,27.17
2019-04-03T16:31:22.644Z,25.83
2019-04-03T16:33:56.394Z,25.57
2019-04-03T16:36:28.568Z,27.63
2019-04-03T16:39:01.990Z,27.90
2019-04-03T16:41:37.420Z,28.47
2019-04-03T16:44:08.613Z,27.73
2019-04-03T16:46:41.603Z,28.83
2019-04-03T16:49:14.136Z,27.83
2019-04-03T16:51:46.722Z,30.33
2019-04-03T16:54:18.946Z,28.60
2019-04-03T16:56:51.862Z,28.23
2019-04-03T16:59:24.176Z,28.07
2019-04-03T17:01:56.212Z,27.83
2019-04-03T17:04:28.831Z,28.13
2019-04-03T17:07:02.033Z,29.20
2019-04-03T17:09:37.453Z,28.27
2019-04-03T17:12:07.846Z,30.43
2019-04-03T17:14:40.064Z,29.43
2019-04-03T17:17:14.038Z,28.70
2019-04-03T17:19:49.645Z,28.53
2019-04-03T17:22:20.061Z,30.57
2019-04-03T17:24:55.710Z,28.40
2019-04-03T17:27:29.674Z,27.77
2019-04-03T17:30:00.103Z,26.67
2019-04-03T17:32:32.216Z,28.03
2019-04-03T17:35:07.498Z,26.87
2019-04-03T17:37:39.654Z,27.43
2019-04-03T17:40:13.106Z,25.97
2019-04-03T17:42:45.570Z,26.17
2019-04-03T17:45:17.804Z,27.43
2019-04-03T17:47:53.666Z,25.90
2019-04-03T17:50:23.870Z,26.43
2019-04-03T17:52:57.215Z,27.00
2019-04-03T17:55:29.596Z,25.43
2019-04-03T17:58:01.897Z,25.90
2019-04-03T18:00:34.068Z,27.07
2019-04-03T18:03:06.484Z,25.33
2019-04-03T18:05:38.788Z,25.37
2019-04-03T18:08:10.850Z,26.40
2019-04-03T18:10:43.192Z,25.87
2019-04-03T18:13:15.340Z,25.53
2019-04-03T18:15:48.122Z,26.27
2019-04-03T18:18:20.520Z,26.33
2019-04-03T18:20:52.856Z,27.23
2019-04-03T18:23:24.942Z,28.53
2019-04-03T18:25:59.380Z,27.40
2019-04-03T18:28:31.255Z,27.40
2019-04-03T18:31:03.378Z,27.20
2019-04-03T18:33:36.284Z,27.73
2019-04-03T18:36:08.299Z,26.63
2019-04-03T18:38:40.514Z,26.33
2019-04-03T18:41:12.841Z,26.53
2019-04-03T18:43:45.759Z,26.43
2019-04-03T18:46:31.138Z,26.27
2019-04-03T18:49:01.739Z,25.87
2019-04-03T18:51:36.747Z,26.70
2019-04-03T18:54:12.181Z,26.77
2019-04-03T18:56:45.818Z,27.27
2019-04-03T18:59:17.906Z,27.87
2019-04-03T19:01:49.910Z,26.10
2019-04-03T19:04:21.891Z,25.97
2019-04-03T19:06:54.008Z,26.00
2019-04-03T19:09:26.066Z,25.73
2019-04-03T19:12:07.955Z,25.57
2019-04-03T19:14:32.984Z,25.13
2019-04-03T19:17:11.803Z,24.23
2019-04-03T19:19:44.688Z,25.20
2019-04-03T19:22:25.461Z,25.47
2019-04-03T19:24:58.492Z,24.57
2019-04-03T19:27:29.358Z,25.60
2019-04-03T19:30:07.001Z,24.83
2019-04-03T19:32:38.580Z,25.63
2019-04-03T19:35:12.550Z,26.90
2019-04-03T19:37:49.898Z,26.53
2019-04-03T19:40:24.539Z,25.77
2019-04-03T19:43:00.432Z,26.33
2019-04-03T19:45:34.481Z,26.40
2019-04-03T19:48:12.438Z,26.10
2019-04-03T19:50:46.209Z,26.77
2019-04-03T19:53:29.095Z,25.63
2019-04-03T19:56:04.385Z,26.33
2019-04-03T19:58:52.039Z,26.20
2019-04-03T20:01:23.788Z,26.87
2019-04-03T20:03:58.365Z,27.20
2019-04-03T20:06:31.341Z,26.47
2019-04-03T20:09:10.428Z,27.10
2019-04-03T20:11:48.892Z,26.93
2019-04-03T20:14:25.084Z,26.50
2019-04-03T20:17:01.523Z,26.97
2019-04-03T20:19:38.421Z,27.30
2019-04-03T20:22:16.810Z,26.57
2019-04-03T20:24:59.773Z,26.03
2019-04-03T20:27:26.535Z,25.87
2019-04-03T20:30:05.236Z,26.00
2019-04-03T20:35:37.007Z,27.10
2019-04-03T20:38:10.850Z,25.63
2019-04-03T20:40:48.130Z,26.37
2019-04-03T20:43:21.847Z,26.57
2019-04-03T20:45:54.463Z,25.23
2019-04-03T20:48:28.786Z,25.33
2019-04-03T20:51:01.022Z,25.87
2019-04-03T20:53:45.697Z,26.67
2019-04-03T20:56:17.003Z,26.17
2019-04-03T20:58:55.700Z,26.47
2019-04-03T21:01:22.971Z,26.53
2019-04-03T21:03:55.053Z,26.30
2019-04-03T21:06:27.029Z,26.47
2019-04-03T21:08:59.598Z,26.43
2019-04-03T21:11:32.641Z,26.47
2019-04-03T21:14:11.011Z,26.77
2019-04-03T21:16:43.451Z,26.17
2019-04-03T21:19:15.553Z,25.37
2019-04-03T21:21:47.664Z,27.20
2019-04-03T21:24:19.953Z,25.80
2019-04-03T21:26:51.953Z,25.13
2019-04-03T21:29:24.043Z,26.37
2019-04-03T21:31:56.744Z,25.27
2019-04-03T21:34:32.481Z,26.27
2019-04-03T21:37:03.198Z,26.93
2019-04-03T21:39:35.770Z,25.23
2019-04-03T21:42:07.846Z,25.60
2019-04-03T21:44:41.823Z,23.03
2019-04-03T21:47:14.125Z,24.53
2019-04-03T21:49:47.687Z,23.13
2019-04-03T21:52:20.942Z,22.43
2019-04-03T21:54:54.345Z,24.07
2019-04-03T21:57:26.408Z,22.93
2019-04-03T21:59:58.374Z,21.93
2019-04-03T22:02:30.559Z,22.70
2019-04-03T22:05:02.903Z,21.97
2019-04-03T22:07:35.110Z,21.17
2019-04-03T22:10:09.051Z,22.37
2019-04-03T22:12:41.458Z,22.23
2019-04-03T22:15:14.561Z,21.20
2019-04-03T22:17:46.728Z,21.67
2019-04-03T22:20:19.011Z,20.80
2019-04-03T22:22:51.433Z,20.60
2019-04-03T22:25:24.276Z,20.43
2019-04-03T22:27:57.440Z,21.13
2019-04-03T22:30:30.852Z,20.73
2019-04-03T22:33:02.919Z,19.57
2019-04-03T22:35:34.965Z,20.60
2019-04-03T22:38:07.739Z,20.27
2019-04-03T22:58:10.877Z,18.70
2019-04-03T23:00:43.244Z,18.60
2019-04-03T23:03:22.064Z,19.50
2019-04-03T23:06:02.343Z,19.40
2019-04-03T23:08:36.082Z,18.87
2019-04-03T23:11:08.808Z,18.80
2019-04-03T23:16:42.724Z,19.17
2019-04-03T23:19:17.967Z,18.97
2019-04-03T23:21:50.695Z,18.00
2019-04-03T23:24:23.011Z,18.77
2019-04-03T23:29:54.071Z,19.17
2019-04-03T23:32:26.391Z,18.00
2019-04-03T23:37:57.754Z,18.27
2019-04-03T23:40:42.974Z,18.57
2019-04-03T23:43:22.432Z,17.57
2019-04-03T23:45:54.597Z,16.47
2019-04-03T23:48:26.766Z,18.13
2019-04-03T23:50:59.927Z,18.03
2019-04-03T23:56:45.008Z,17.10
2019-04-03T23:59:17.054Z,17.67
